Terminal Aerodrome Forecast
Issued by NWS Buffalo, NY

Home | Current Version | Previous Version | Text Only | Print | Product List | Glossary On
Versions: 1 2 3 4 5 6 7 8 9 10 11 12 13 14 15 16 17 18 19 20 21 22 23 24
000
FTUS41 KBUF 252000 AAA
TAFBUF
TAF AMD
KBUF 252048Z 2521/2618 23016G22KT P6SM -DZ VCSH OVC025
     FM260300 25006KT P6SM BKN250
     FM261200 VRB04KT P6SM BKN120
     FM261600 06004KT P6SM BKN100=

USA.gov is the U.S. government's official web portal to all federal, state and local government web resources and services.